Time;durP1;ratioP1;P1;durP2;ratioP2;P2;SDS_P1;SDS_P2;PMS_P1;PMS_P2;Temp;Humidity;BMP_temperature;BMP_pressure;BME280_temperature;BME280_humidity;BME280_pressure;Samples;Min_cycle;Max_cycle;Signal;HPM_P1;HPM_P2
2021/07/22 14:26:20;;;;;;;13.75;8.15;;;49.80;17.10;;;;;;6077681;28;1729064;-74
2021/07/22 14:29:22;;;;;;;14.60;8.18;;;49.50;17.30;;;;;;6333588;28;20036;-75
2021/07/22 14:32:23;;;;;;;15.48;8.05;;;49.10;17.30;;;;;;6316036;28;20061;-75
2021/07/22 14:35:24;;;;;;;16.23;8.15;;;48.90;17.30;;;;;;6329356;28;20031;-75
2021/07/22 14:38:27;;;;;;;15.38;7.50;;;48.70;17.50;;;;;;6351917;27;20027;-75
2021/07/22 14:41:28;;;;;;;17.92;7.55;;;48.60;17.40;;;;;;6361932;27;20065;-76
2021/07/22 14:44:29;;;;;;;10.48;6.85;;;48.80;17.20;;;;;;6313191;28;20132;-78
2021/07/22 14:47:31;;;;;;;12.02;7.50;;;48.90;17.10;;;;;;6307008;28;20028;-76
2021/07/22 14:50:34;;;;;;;13.18;7.55;;;48.80;17.30;;;;;;6309315;28;20047;-78
2021/07/22 14:53:35;;;;;;;12.88;7.72;;;48.90;17.00;;;;;;6332459;28;20313;-83
2021/07/22 14:56:36;;;;;;;13.15;7.47;;;48.80;17.30;;;;;;6337877;28;20043;-77
2021/07/22 14:59:37;;;;;;;15.85;7.80;;;48.30;17.50;;;;;;6309369;28;20409;-77
2021/07/22 15:02:38;;;;;;;12.50;7.50;;;48.10;17.20;;;;;;6315767;28;20032;-79
2021/07/22 15:05:40;;;;;;;15.38;8.48;;;47.70;17.50;;;;;;6330165;28;20027;-77
2021/07/22 15:08:41;;;;;;;13.90;7.93;;;46.90;18.20;;;;;;6313286;28;20032;-76
2021/07/22 15:11:43;;;;;;;16.20;8.13;;;45.50;19.20;;;;;;6349585;28;20496;-76
2021/07/22 15:14:44;;;;;;;16.50;7.57;;;44.20;20.40;;;;;;6331919;28;20377;-77
2021/07/22 15:17:45;;;;;;;14.75;7.90;;;42.80;21.50;;;;;;6331251;28;20032;-77
2021/07/22 15:20:46;;;;;;;16.15;8.63;;;41.70;22.50;;;;;;6331307;28;20085;-77
2021/07/22 15:23:48;;;;;;;15.52;7.78;;;40.60;23.20;;;;;;6349067;28;20031;-76
2021/07/22 15:26:49;;;;;;;13.57;8.10;;;39.90;23.80;;;;;;6348862;28;20047;-77
2021/07/22 15:29:51;;;;;;;13.07;8.27;;;40.10;23.90;;;;;;6347481;27;20173;-76
2021/07/22 15:32:53;;;;;;;16.08;8.05;;;40.90;23.50;;;;;;6335543;28;20044;-76
2021/07/22 15:35:55;;;;;;;22.75;8.80;;;41.80;22.80;;;;;;6299582;28;20076;-77
2021/07/22 15:38:56;;;;;;;16.73;7.80;;;42.50;22.10;;;;;;6324178;28;20089;-78
2021/07/22 15:41:57;;;;;;;12.07;7.72;;;43.10;21.60;;;;;;6327424;28;20038;-77
2021/07/22 15:45:00;;;;;;;13.25;7.55;;;43.40;21.30;;;;;;6315666;28;20428;-76
2021/07/22 15:48:01;;;;;;;18.42;7.63;;;43.60;20.90;;;;;;6331157;28;20031;-76
2021/07/22 15:51:02;;;;;;;20.67;8.40;;;43.80;20.80;;;;;;6349190;28;20050;-76
2021/07/22 15:54:03;;;;;;;17.65;7.75;;;43.80;20.70;;;;;;6331134;28;20084;-77
2021/07/22 15:57:07;;;;;;;18.23;7.60;;;44.00;20.60;;;;;;6348681;28;20039;-76
2021/07/22 16:00:09;;;;;;;14.13;8.38;;;44.30;20.60;;;;;;6331109;28;20081;-76
2021/07/22 16:03:13;;;;;;;11.88;6.97;;;44.40;20.50;;;;;;6331154;28;20115;-78
2021/07/22 16:06:14;;;;;;;12.43;7.47;;;44.50;20.50;;;;;;6330704;28;20101;-78
2021/07/22 16:09:15;;;;;;;14.43;7.60;;;44.80;20.30;;;;;;6329755;28;20035;-78
2021/07/22 16:12:17;;;;;;;17.38;7.38;;;45.00;20.00;;;;;;6348842;28;20027;-76
2021/07/22 16:15:18;;;;;;;16.60;7.82;;;45.30;19.90;;;;;;6348792;28;20043;-77
2021/07/22 16:18:19;;;;;;;16.77;8.23;;;45.50;19.60;;;;;;6347894;28;20027;-77
2021/07/22 16:21:21;;;;;;;12.18;7.25;;;45.40;19.40;;;;;;6313816;28;20024;-75
2021/07/22 16:24:22;;;;;;;14.80;8.70;;;45.10;19.60;;;;;;6330329;28;20377;-76
2021/07/22 16:27:23;;;;;;;16.58;7.82;;;45.10;19.70;;;;;;6348317;28;20346;-76
2021/07/22 16:30:24;;;;;;;13.50;7.85;;;44.90;19.80;;;;;;6331221;28;20096;-76
2021/07/22 16:33:25;;;;;;;13.63;7.57;;;44.80;20.00;;;;;;6330165;28;20092;-76
2021/07/22 16:36:27;;;;;;;15.38;7.95;;;44.60;20.10;;;;;;6329960;28;20436;-75
2021/07/22 16:39:27;;;;;;;15.88;8.82;;;44.50;20.20;;;;;;6346097;28;20083;-75
2021/07/22 16:42:29;;;;;;;12.40;7.40;;;44.20;20.50;;;;;;6327756;28;20028;-75
2021/07/22 16:45:30;;;;;;;13.70;7.82;;;43.60;21.10;;;;;;6330331;28;20384;-75
2021/07/22 16:48:31;;;;;;;13.55;7.47;;;42.90;21.60;;;;;;6313013;28;20078;-75
2021/07/22 16:51:32;;;;;;;15.38;7.38;;;42.80;21.70;;;;;;6345708;28;20036;-75
2021/07/22 16:54:36;;;;;;;16.15;7.30;;;42.80;21.60;;;;;;6347061;28;20027;-75
2021/07/22 16:57:37;;;;;;;13.68;7.15;;;42.60;21.70;;;;;;6329710;28;20035;-75
2021/07/22 17:00:38;;;;;;;16.70;7.72;;;41.70;22.40;;;;;;6329941;28;20047;-75
2021/07/22 17:03:40;;;;;;;14.27;7.63;;;40.70;23.40;;;;;;6346985;28;20406;-76
2021/07/22 17:06:41;;;;;;;14.30;8.35;;;39.70;24.40;;;;;;6329112;28;20039;-76
2021/07/22 17:09:42;;;;;;;14.73;7.45;;;38.80;25.40;;;;;;6328774;28;20063;-77
2021/07/22 17:12:44;;;;;;;12.80;8.52;;;37.90;26.30;;;;;;6334720;28;20038;-77
2021/07/22 17:15:45;;;;;;;15.77;7.75;;;37.20;27.10;;;;;;6352187;28;20043;-77
2021/07/22 17:18:46;;;;;;;15.70;8.23;;;36.60;27.80;;;;;;6340869;28;20192;-79
2021/07/22 17:21:47;;;;;;;15.73;7.75;;;36.10;28.50;;;;;;6334327;28;20032;-77
2021/07/22 17:24:48;;;;;;;13.25;7.93;;;35.60;29.00;;;;;;6333626;28;20063;-78
2021/07/22 17:27:50;;;;;;;22.88;8.40;;;35.30;29.50;;;;;;6316686;28;20110;-78
2021/07/22 17:30:51;;;;;;;15.15;8.32;;;35.00;29.90;;;;;;6349596;28;20380;-76
2021/07/22 17:33:52;;;;;;;15.35;8.02;;;34.80;30.30;;;;;;6349878;28;20045;-77
2021/07/22 17:36:53;;;;;;;17.92;8.90;;;34.50;30.80;;;;;;6337085;28;20047;-78
2021/07/22 17:39:54;;;;;;;13.25;8.18;;;34.20;31.20;;;;;;6334909;28;20088;-77
2021/07/22 17:42:56;;;;;;;15.32;8.07;;;34.10;31.70;;;;;;6302398;28;20034;-79
2021/07/22 17:45:57;;;;;;;14.50;7.60;;;33.90;31.90;;;;;;6349725;28;20032;-78
2021/07/22 17:48:59;;;;;;;18.48;7.95;;;33.80;32.10;;;;;;6333239;28;20043;-78
2021/07/22 17:52:00;;;;;;;18.05;8.23;;;33.70;32.40;;;;;;6332577;28;20047;-77
2021/07/22 17:55:02;;;;;;;16.25;7.97;;;33.60;32.80;;;;;;6331584;28;20039;-78
2021/07/22 17:58:03;;;;;;;21.35;8.35;;;33.40;33.20;;;;;;6316240;28;20413;-78
2021/07/22 18:01:05;;;;;;;18.30;8.00;;;33.20;33.60;;;;;;6350486;28;20385;-78
2021/07/22 18:04:06;;;;;;;20.20;9.27;;;33.10;33.70;;;;;;6330470;28;20180;-77
2021/07/22 18:07:13;;;;;;;18.05;7.80;;;33.10;34.00;;;;;;6332107;28;20027;-76
2021/07/22 18:10:22;;;;;;;15.50;8.07;;;33.00;34.00;;;;;;6330658;28;20036;-78
2021/07/22 18:13:26;;;;;;;16.80;7.72;;;32.90;34.10;;;;;;6321871;28;20028;-78
2021/07/22 18:16:27;;;;;;;12.75;7.30;;;32.90;34.30;;;;;;6348609;28;20481;-78
2021/07/22 18:19:28;;;;;;;15.20;8.10;;;32.90;34.80;;;;;;6348463;28;20027;-76
2021/07/22 18:22:30;;;;;;;16.75;8.00;;;32.70;35.00;;;;;;6347903;28;20032;-76
2021/07/22 18:25:31;;;;;;;15.18;8.43;;;32.60;35.20;;;;;;6328953;28;20035;-78
2021/07/22 18:28:32;;;;;;;24.05;8.48;;;32.50;35.40;;;;;;6331120;28;20456;-78
2021/07/22 18:31:47;;;;;;;18.35;7.95;;;32.50;35.60;;;;;;6349928;28;20096;-78
2021/07/22 18:35:00;;;;;;;14.88;7.60;;;32.40;35.90;;;;;;6346566;28;20028;-78
2021/07/22 18:38:09;;;;;;;17.60;8.13;;;32.30;36.10;;;;;;6349797;28;20032;-78
2021/07/22 18:41:10;;;;;;;17.63;8.23;;;32.30;36.40;;;;;;6349421;28;20027;-79
2021/07/22 18:44:12;;;;;;;17.17;7.78;;;32.20;36.50;;;;;;6329870;28;20037;-78
2021/07/22 18:47:13;;;;;;;13.88;7.20;;;32.10;36.60;;;;;;6349413;28;20065;-79
2021/07/22 18:50:14;;;;;;;17.42;7.75;;;32.10;37.00;;;;;;6349475;28;20047;-80
2021/07/22 18:53:15;;;;;;;16.02;8.13;;;32.00;37.10;;;;;;6331452;28;20044;-78
2021/07/22 18:56:18;;;;;;;18.10;7.78;;;31.90;37.40;;;;;;6349806;28;20074;-79
2021/07/22 18:59:20;;;;;;;15.32;7.82;;;31.80;37.70;;;;;;6331949;28;20365;-78
2021/07/22 19:02:21;;;;;;;16.42;7.93;;;31.70;38.00;;;;;;6349357;28;20488;-78
2021/07/22 19:05:22;;;;;;;14.20;7.88;;;31.60;38.30;;;;;;6314332;28;20035;-79
2021/07/22 19:08:23;;;;;;;16.25;8.02;;;31.50;38.40;;;;;;6349458;28;20035;-79
2021/07/22 19:11:25;;;;;;;16.38;7.20;;;31.40;38.80;;;;;;6347787;28;20127;-78
2021/07/22 19:14:26;;;;;;;17.80;7.65;;;31.30;39.10;;;;;;6329574;28;20090;-77
2021/07/22 19:17:27;;;;;;;19.63;8.20;;;31.00;39.00;;;;;;6328203;28;20040;-78
2021/07/22 19:20:28;;;;;;;16.50;7.60;;;31.10;39.20;;;;;;6349149;28;20031;-79
2021/07/22 19:23:29;;;;;;;18.23;7.57;;;31.00;39.40;;;;;;6306267;28;20553;-79
2021/07/22 19:26:33;;;;;;;12.90;6.82;;;30.90;39.60;;;;;;6295693;28;20063;-76
2021/07/22 19:29:34;;;;;;;14.65;7.53;;;30.90;39.80;;;;;;6324206;28;20106;-76
2021/07/22 19:32:36;;;;;;;15.43;7.47;;;30.80;40.00;;;;;;6313297;28;20043;-76
2021/07/22 19:35:37;;;;;;;17.48;7.88;;;30.70;40.00;;;;;;6313925;28;20047;-76
2021/07/22 19:38:38;;;;;;;20.13;8.88;;;30.70;40.20;;;;;;6305584;28;20028;-76
2021/07/22 19:41:40;;;;;;;17.92;8.43;;;30.60;40.30;;;;;;6322992;28;20044;-76
2021/07/22 19:44:41;;;;;;;18.63;6.63;;;30.50;40.40;;;;;;6322586;28;20040;-77
2021/07/22 19:47:44;;;;;;;15.73;8.15;;;30.40;40.30;;;;;;6323218;28;20028;-77
2021/07/22 19:50:46;;;;;;;11.82;6.68;;;30.30;40.50;;;;;;6331548;28;20077;-77
2021/07/22 19:53:50;;;;;;;21.40;7.25;;;30.20;40.70;;;;;;6350233;28;20044;-77
2021/07/22 19:56:53;;;;;;;17.70;8.43;;;30.10;40.80;;;;;;6331582;28;20055;-78
2021/07/22 19:59:54;;;;;;;14.98;7.47;;;30.10;41.00;;;;;;6313203;28;20038;-77
2021/07/22 20:02:56;;;;;;;19.98;7.85;;;30.00;41.20;;;;;;6314020;28;20031;-77
2021/07/22 20:05:57;;;;;;;17.88;7.45;;;29.90;41.30;;;;;;6347770;28;20035;-76
2021/07/22 20:08:59;;;;;;;17.25;7.32;;;29.80;41.40;;;;;;6329050;28;20051;-76
2021/07/22 20:12:02;;;;;;;17.55;7.22;;;29.80;41.50;;;;;;6328025;28;20035;-76
2021/07/22 20:15:04;;;;;;;15.52;7.05;;;29.70;41.60;;;;;;6328765;28;20046;-76
2021/07/22 20:18:06;;;;;;;15.80;7.80;;;29.70;41.60;;;;;;6346381;28;20062;-76
2021/07/22 20:21:07;;;;;;;14.95;6.82;;;29.70;41.60;;;;;;6330451;28;20035;-76
2021/07/22 20:24:08;;;;;;;16.65;6.72;;;29.60;41.50;;;;;;6329868;28;20028;-77
2021/07/22 20:27:10;;;;;;;16.35;7.78;;;29.60;41.60;;;;;;6329087;28;20031;-77
2021/07/22 20:30:11;;;;;;;16.25;6.93;;;29.60;41.70;;;;;;6317533;27;20099;-76
2021/07/22 20:33:12;;;;;;;13.90;6.63;;;29.50;41.60;;;;;;6340003;27;20111;-78
2021/07/22 20:36:13;;;;;;;13.77;6.88;;;29.50;41.40;;;;;;6360110;27;20088;-78
2021/07/22 20:39:15;;;;;;;12.60;6.18;;;29.40;41.30;;;;;;6334676;28;20512;-78
2021/07/22 20:42:19;;;;;;;19.35;7.20;;;29.40;41.30;;;;;;6329755;28;20058;-77
2021/07/22 20:45:22;;;;;;;21.63;6.72;;;29.20;41.20;;;;;;6330139;28;20065;-77
2021/07/22 20:48:26;;;;;;;15.13;7.38;;;29.20;41.40;;;;;;6312850;28;20043;-76
2021/07/22 20:51:32;;;;;;;18.25;7.45;;;29.10;41.30;;;;;;6348252;28;20186;-76
2021/07/22 20:54:33;;;;;;;23.90;7.63;;;29.00;41.30;;;;;;6310930;28;20588;-76
2021/07/22 20:57:34;;;;;;;12.75;6.25;;;29.00;41.40;;;;;;6313517;28;20055;-77
2021/07/22 21:00:37;;;;;;;18.02;6.68;;;29.00;41.40;;;;;;6347740;28;20051;-76
2021/07/22 21:03:39;;;;;;;12.82;6.72;;;28.90;41.30;;;;;;6314099;28;20039;-76
2021/07/22 21:06:40;;;;;;;15.40;6.20;;;28.90;41.30;;;;;;6305365;28;20040;-76
2021/07/22 21:09:42;;;;;;;13.48;6.43;;;28.90;41.20;;;;;;6304912;28;20397;-78
2021/07/22 21:12:44;;;;;;;13.57;5.75;;;28.80;41.00;;;;;;6305236;28;20093;-76
2021/07/22 21:15:45;;;;;;;13.50;6.13;;;28.80;41.00;;;;;;6288672;28;20070;-77
2021/07/22 21:18:46;;;;;;;13.57;6.40;;;28.80;41.30;;;;;;6322991;28;20032;-77
2021/07/22 21:21:47;;;;;;;23.15;7.03;;;28.70;41.10;;;;;;6305178;28;20044;-76
2021/07/22 21:24:49;;;;;;;11.80;7.05;;;28.70;41.20;;;;;;6322804;28;20105;-76
2021/07/22 21:27:50;;;;;;;23.48;8.90;;;28.60;41.20;;;;;;6322864;28;20460;-77
2021/07/22 21:30:51;;;;;;;17.70;7.30;;;28.60;41.50;;;;;;6295679;28;20093;-77
2021/07/22 21:33:52;;;;;;;11.73;6.78;;;28.60;41.50;;;;;;6322580;28;20486;-77
2021/07/22 21:36:53;;;;;;;13.63;7.35;;;28.60;41.50;;;;;;6329979;28;20057;-77
2021/07/22 21:39:54;;;;;;;12.00;6.75;;;28.60;41.50;;;;;;6313617;28;20023;-77
2021/07/22 21:42:55;;;;;;;16.85;7.75;;;28.50;41.50;;;;;;6313787;28;20046;-77
2021/07/22 21:45:56;;;;;;;15.68;6.22;;;28.50;41.70;;;;;;6330200;28;20035;-80
2021/07/22 21:48:58;;;;;;;15.13;6.40;;;28.50;41.80;;;;;;6329877;28;20039;-79
2021/07/22 21:51:59;;;;;;;15.60;7.70;;;28.40;41.80;;;;;;6313242;28;20040;-79
2021/07/22 21:55:01;;;;;;;15.80;6.20;;;28.40;41.80;;;;;;6348156;28;20314;-77
2021/07/22 21:58:02;;;;;;;18.25;6.75;;;28.30;42.00;;;;;;6333599;28;20401;-80
2021/07/22 22:01:03;;;;;;;20.20;7.32;;;28.30;42.10;;;;;;6317355;28;20523;-79
2021/07/22 22:04:05;;;;;;;15.20;7.22;;;28.30;42.20;;;;;;6334737;28;20092;-78
2021/07/22 22:07:06;;;;;;;18.38;7.05;;;28.30;42.20;;;;;;6336878;28;20042;-77
2021/07/22 22:10:07;;;;;;;14.52;7.30;;;28.30;42.40;;;;;;6331173;28;20093;-78
2021/07/22 22:13:12;;;;;;;15.15;7.38;;;28.30;42.70;;;;;;6316598;28;20024;-79
2021/07/22 22:16:14;;;;;;;16.17;7.57;;;28.20;42.90;;;;;;6350777;28;20042;-77
2021/07/22 22:19:19;;;;;;;17.73;7.05;;;28.20;43.10;;;;;;6312121;28;20043;-78
2021/07/22 22:22:21;;;;;;;16.13;7.30;;;28.20;43.40;;;;;;6351164;28;20035;-77
2021/07/22 22:25:23;;;;;;;15.68;7.32;;;28.20;43.50;;;;;;6351055;28;20043;-77
2021/07/22 22:28:24;;;;;;;14.77;7.07;;;28.10;43.60;;;;;;6348149;28;20050;-77
2021/07/22 22:31:26;;;;;;;22.95;7.15;;;28.10;43.70;;;;;;6351188;28;20039;-79
2021/07/22 22:34:27;;;;;;;15.52;6.95;;;28.10;43.90;;;;;;6333044;28;20039;-79
2021/07/22 22:37:29;;;;;;;16.67;7.57;;;28.00;43.90;;;;;;6334295;28;20035;-78
2021/07/22 22:40:32;;;;;;;16.25;7.93;;;28.00;44.10;;;;;;6351830;28;20035;-78
2021/07/22 22:43:33;;;;;;;15.93;7.47;;;28.00;44.20;;;;;;6317122;28;20042;-78
2021/07/22 22:46:34;;;;;;;14.35;7.65;;;28.00;44.20;;;;;;6333570;28;20035;-76
2021/07/22 22:49:35;;;;;;;13.85;6.70;;;27.90;44.30;;;;;;6317151;28;20131;-79
2021/07/22 22:52:36;;;;;;;15.80;7.03;;;27.90;44.10;;;;;;6351624;28;20036;-76
2021/07/22 22:55:37;;;;;;;19.83;8.10;;;27.90;44.10;;;;;;6351806;28;20429;-78
2021/07/22 22:58:38;;;;;;;20.10;7.65;;;27.80;44.10;;;;;;6319231;28;20032;-79
2021/07/22 23:01:39;;;;;;;15.27;7.55;;;27.80;44.20;;;;;;6350155;28;20386;-76
2021/07/22 23:04:40;;;;;;;16.15;7.60;;;27.80;44.40;;;;;;6333105;28;20044;-77
2021/07/22 23:07:41;;;;;;;13.80;7.47;;;27.70;44.50;;;;;;6349518;28;20055;-77
2021/07/22 23:10:42;;;;;;;15.32;7.60;;;27.70;44.80;;;;;;6332859;28;20378;-77
2021/07/22 23:13:44;;;;;;;15.05;6.88;;;27.60;45.00;;;;;;6350366;28;20085;-77
2021/07/22 23:16:45;;;;;;;16.33;7.78;;;27.60;45.30;;;;;;6351051;28;20464;-76
2021/07/22 23:19:46;;;;;;;17.05;7.38;;;27.50;45.50;;;;;;6333307;28;20050;-77
2021/07/22 23:22:49;;;;;;;16.48;8.32;;;27.50;45.90;;;;;;6333015;28;20046;-77
2021/07/22 23:25:50;;;;;;;14.23;7.57;;;27.40;46.20;;;;;;6350297;28;20102;-77
2021/07/22 23:28:51;;;;;;;16.90;7.93;;;27.40;46.50;;;;;;6350835;28;20072;-77
2021/07/22 23:31:52;;;;;;;14.05;7.03;;;27.30;46.80;;;;;;6350315;28;20058;-79
2021/07/22 23:34:54;;;;;;;17.23;8.20;;;27.20;46.90;;;;;;6332801;28;20130;-77
2021/07/22 23:37:55;;;;;;;15.52;7.22;;;27.20;46.90;;;;;;6333030;28;20114;-77
2021/07/22 23:40:56;;;;;;;19.17;7.07;;;27.10;47.00;;;;;;6316351;28;20031;-77
2021/07/22 23:43:57;;;;;;;14.23;7.32;;;27.10;47.30;;;;;;6349230;28;20050;-77
2021/07/22 23:46:58;;;;;;;16.23;7.68;;;27.10;47.50;;;;;;6375958;28;20047;-77
2021/07/22 23:49:59;;;;;;;18.80;7.82;;;27.10;47.50;;;;;;6375426;28;20142;-77
2021/07/22 23:53:01;;;;;;;16.42;7.43;;;27.10;47.60;;;;;;6356418;28;20039;-77
2021/07/22 23:56:02;;;;;;;17.65;7.60;;;27.10;47.20;;;;;;6333536;28;20035;-76
2021/07/22 23:59:03;;;;;;;16.90;7.80;;;27.10;47.80;;;;;;6332883;28;20463;-77
